createdAt,value
2023-01-17T00:00:54.128Z,99.90
2023-01-17T00:03:33.481Z,99.90
2023-01-17T00:06:51.677Z,99.90
2023-01-17T00:10:23.243Z,99.90
2023-01-17T00:13:21.529Z,99.90
2023-01-17T00:20:02.795Z,99.90
2023-01-17T00:27:04.815Z,99.90
2023-01-17T00:33:37.250Z,99.90
2023-01-17T00:36:35.972Z,99.90
2023-01-17T00:39:22.487Z,99.90
2023-01-17T00:46:05.936Z,99.90
2023-01-17T00:49:27.042Z,99.90
2023-01-17T00:52:29.308Z,99.90
2023-01-17T00:55:41.090Z,99.90
2023-01-17T00:58:35.799Z,99.90
2023-01-17T01:01:40.520Z,99.90
2023-01-17T01:04:58.975Z,99.90
2023-01-17T01:07:59.946Z,99.90
2023-01-17T01:10:57.030Z,99.90
2023-01-17T01:13:51.041Z,99.90
2023-01-17T01:16:53.005Z,99.90
2023-01-17T01:20:00.191Z,99.90
2023-01-17T01:22:48.119Z,99.90
2023-01-17T01:26:01.388Z,99.90
2023-01-17T01:29:00.262Z,99.90
2023-01-17T01:32:00.890Z,99.90
2023-01-17T01:35:05.298Z,99.90
2023-01-17T01:37:42.033Z,99.90
2023-01-17T01:40:14.657Z,99.90
2023-01-17T01:43:06.258Z,99.90
2023-01-17T01:45:33.899Z,99.90
2023-01-17T01:48:21.788Z,99.90
2023-01-17T01:50:52.899Z,99.90
2023-01-17T01:53:23.188Z,99.90
2023-01-17T01:55:53.426Z,99.90
2023-01-17T01:58:29.261Z,99.90
2023-01-17T02:00:57.515Z,99.90
2023-01-17T02:03:30.629Z,99.90
2023-01-17T02:06:28.672Z,99.90
2023-01-17T02:09:04.344Z,99.90
2023-01-17T02:11:39.901Z,99.90
2023-01-17T02:14:09.066Z,99.90
2023-01-17T02:17:27.625Z,99.90
2023-01-17T02:20:56.451Z,99.90
2023-01-17T02:24:03.287Z,99.90
2023-01-17T02:31:06.599Z,99.90
2023-01-17T02:34:22.080Z,99.90
2023-01-17T02:42:16.322Z,99.90
2023-01-17T02:46:01.421Z,99.90
2023-01-17T02:48:41.127Z,99.90
2023-01-17T02:51:30.072Z,99.90
2023-01-17T02:54:27.974Z,99.90
2023-01-17T02:57:29.916Z,99.90
2023-01-17T03:00:36.014Z,99.90
2023-01-17T03:03:35.654Z,99.90
2023-01-17T03:06:16.668Z,99.90
2023-01-17T03:08:50.002Z,99.90
2023-01-17T03:11:28.566Z,99.90
2023-01-17T03:14:10.777Z,99.90
2023-01-17T03:16:42.080Z,99.90
2023-01-17T03:33:20.951Z,99.90
2023-01-17T03:36:09.987Z,99.90
2023-01-17T03:39:04.299Z,99.90
2023-01-17T03:41:57.883Z,99.90
2023-01-17T03:44:48.033Z,99.90
2023-01-17T03:47:53.615Z,99.90
2023-01-17T03:51:04.034Z,99.90
2023-01-17T03:57:11.838Z,99.90
2023-01-17T04:00:03.721Z,99.90
2023-01-17T04:02:47.210Z,99.90
2023-01-17T04:05:59.286Z,99.90
2023-01-17T04:09:15.012Z,99.90
2023-01-17T04:11:54.552Z,99.90
2023-01-17T04:14:33.734Z,99.90
2023-01-17T04:17:53.280Z,99.90
2023-01-17T04:21:05.752Z,99.90
2023-01-17T06:50:04.352Z,99.90
2023-01-17T06:52:31.358Z,99.90
2023-01-17T06:54:58.322Z,99.90
2023-01-17T06:57:25.397Z,99.90
2023-01-17T06:59:52.453Z,99.90
2023-01-17T07:02:19.542Z,99.90
2023-01-17T07:04:46.321Z,99.90
2023-01-17T07:07:13.361Z,99.90
2023-01-17T07:09:40.270Z,99.90
2023-01-17T07:12:07.726Z,99.90
2023-01-17T07:14:34.632Z,99.90
2023-01-17T07:17:01.503Z,99.90
2023-01-17T07:19:28.365Z,99.90
2023-01-17T07:21:55.959Z,99.90
2023-01-17T07:24:24.514Z,99.90
2023-01-17T07:26:52.191Z,99.90
2023-01-17T07:29:19.539Z,99.90
2023-01-17T07:31:59.110Z,99.90
2023-01-17T07:34:25.992Z,99.90
2023-01-17T07:36:57.493Z,99.90
2023-01-17T07:39:26.860Z,99.90
2023-01-17T07:41:54.682Z,99.90
2023-01-17T07:44:21.479Z,99.90
2023-01-17T07:46:48.384Z,99.90
2023-01-17T07:49:15.209Z,99.90
2023-01-17T07:51:42.214Z,99.90
2023-01-17T07:54:14.586Z,99.90
2023-01-17T07:56:47.758Z,99.90
2023-01-17T07:59:18.649Z,99.90
2023-01-17T08:01:49.347Z,99.90
2023-01-17T08:04:18.267Z,99.90
2023-01-17T08:06:48.876Z,99.90
2023-01-17T08:09:17.998Z,99.90
2023-01-17T08:11:48.218Z,99.90
2023-01-17T08:14:16.682Z,99.90
2023-01-17T08:16:45.496Z,99.90
2023-01-17T08:19:18.801Z,99.90
2023-01-17T08:21:56.309Z,99.90
2023-01-17T08:24:26.985Z,99.90
2023-01-17T08:27:01.064Z,99.90
2023-01-17T08:29:31.141Z,99.90
2023-01-17T08:32:00.061Z,99.90
2023-01-17T08:34:28.671Z,99.90
2023-01-17T08:36:57.782Z,99.90
2023-01-17T08:39:29.271Z,99.90
2023-01-17T08:42:03.632Z,99.90
2023-01-17T08:44:46.522Z,99.90
2023-01-17T08:47:17.718Z,99.90
2023-01-17T08:49:48.512Z,99.90
2023-01-17T08:52:23.538Z,99.90
2023-01-17T08:55:00.445Z,99.90
2023-01-17T08:57:36.266Z,99.90
2023-01-17T09:00:15.385Z,99.90
2023-01-17T09:02:55.525Z,99.90
2023-01-17T09:05:27.106Z,99.90
2023-01-17T09:08:00.895Z,99.90
2023-01-17T09:10:30.787Z,99.90
2023-01-17T09:13:00.935Z,99.90
2023-01-17T09:15:32.467Z,99.90
2023-01-17T09:18:02.170Z,99.90
2023-01-17T09:20:31.512Z,99.90
2023-01-17T09:23:04.921Z,99.90
2023-01-17T09:25:33.438Z,99.90
2023-01-17T09:28:02.691Z,99.90
2023-01-17T09:30:30.621Z,99.90
2023-01-17T09:32:59.459Z,99.90
2023-01-17T09:35:29.520Z,99.90
2023-01-17T09:37:59.815Z,99.90
2023-01-17T09:40:29.577Z,99.90
2023-01-17T09:43:07.269Z,99.90
2023-01-17T09:45:39.320Z,99.90
2023-01-17T09:48:37.322Z,99.90
2023-01-17T09:51:24.884Z,99.90
2023-01-17T09:54:08.700Z,99.90
2023-01-17T09:57:03.448Z,99.90
2023-01-17T10:00:06.022Z,99.90
2023-01-17T10:03:04.224Z,99.90
2023-01-17T10:05:47.369Z,99.90
2023-01-17T10:08:51.017Z,99.90
2023-01-17T10:12:01.721Z,99.90
2023-01-17T10:14:34.818Z,99.90
2023-01-17T10:17:43.290Z,99.90
2023-01-17T10:20:39.476Z,99.90
2023-01-17T10:23:38.441Z,99.90
2023-01-17T10:26:15.860Z,99.90
2023-01-17T10:28:51.505Z,99.90
2023-01-17T10:31:27.097Z,99.90
2023-01-17T10:34:09.842Z,99.90
2023-01-17T10:36:45.334Z,99.90
2023-01-17T10:39:23.387Z,99.90
2023-01-17T10:42:06.625Z,99.90
2023-01-17T10:45:29.356Z,99.90
2023-01-17T10:48:27.729Z,99.90
2023-01-17T10:51:28.903Z,99.90
2023-01-17T10:54:46.591Z,99.90
2023-01-17T10:57:22.716Z,99.90
2023-01-17T10:59:52.671Z,99.90
2023-01-17T11:02:34.374Z,99.90
2023-01-17T11:05:22.870Z,99.90
2023-01-17T11:08:08.983Z,99.90
2023-01-17T11:10:50.026Z,99.90
2023-01-17T11:13:38.987Z,99.60
2023-01-17T11:16:21.435Z,99.90
2023-01-17T11:19:30.561Z,99.90
2023-01-17T11:22:04.726Z,99.90
2023-01-17T11:24:51.585Z,99.90
2023-01-17T11:27:42.147Z,99.90
2023-01-17T11:30:19.962Z,99.90
2023-01-17T11:33:33.269Z,99.90
2023-01-17T11:36:08.693Z,99.90
2023-01-17T11:38:39.242Z,99.90
2023-01-17T11:41:38.913Z,99.90
2023-01-17T11:44:32.392Z,99.90
2023-01-17T11:47:21.511Z,99.90
2023-01-17T11:49:50.287Z,99.90
2023-01-17T11:52:33.733Z,99.90
2023-01-17T11:55:01.585Z,99.90
2023-01-17T11:57:36.144Z,99.90
2023-01-17T12:00:32.171Z,99.90
2023-01-17T12:03:25.427Z,99.90
2023-01-17T12:06:28.095Z,99.90
2023-01-17T12:09:12.266Z,99.90
2023-01-17T12:16:29.313Z,99.90
2023-01-17T12:19:25.841Z,99.90
2023-01-17T12:21:52.864Z,99.90
2023-01-17T12:24:57.554Z,99.90
2023-01-17T12:27:43.621Z,99.90
2023-01-17T12:30:41.171Z,99.90
2023-01-17T12:33:43.828Z,99.90
2023-01-17T12:36:52.223Z,99.90
2023-01-17T12:39:28.281Z,99.90
2023-01-17T12:42:13.751Z,99.90
2023-01-17T12:44:51.912Z,99.90
2023-01-17T12:47:23.354Z,99.90
2023-01-17T12:50:06.461Z,99.90
2023-01-17T12:53:12.281Z,99.90
2023-01-17T12:56:11.097Z,99.40
2023-01-17T12:59:20.696Z,99.80
2023-01-17T13:02:00.575Z,99.50
2023-01-17T13:04:57.430Z,99.90
2023-01-17T13:07:46.181Z,99.90
2023-01-17T13:10:41.809Z,99.90
2023-01-17T13:13:37.145Z,99.90
2023-01-17T13:16:33.105Z,99.90
2023-01-17T13:19:24.160Z,99.90
2023-01-17T13:21:58.202Z,99.90
2023-01-17T13:24:36.300Z,99.90
2023-01-17T13:27:38.675Z,99.90
2023-01-17T13:30:31.534Z,99.90
2023-01-17T13:33:43.346Z,97.70
2023-01-17T13:36:46.833Z,98.30
2023-01-17T13:39:32.623Z,96.40
2023-01-17T13:42:50.473Z,92.40
2023-01-17T13:45:29.372Z,90.00
2023-01-17T13:48:21.001Z,79.00
2023-01-17T13:51:11.806Z,90.60
2023-01-17T13:53:42.468Z,94.40
2023-01-17T13:56:20.895Z,92.70
2023-01-17T13:58:53.460Z,90.80
2023-01-17T14:01:47.620Z,83.10
2023-01-17T14:04:25.782Z,81.00
2023-01-17T14:06:59.995Z,77.30
2023-01-17T14:09:42.642Z,78.10
2023-01-17T14:12:28.692Z,81.00
2023-01-17T14:18:03.836Z,93.10
2023-01-17T14:20:49.980Z,95.70
2023-01-17T14:23:31.894Z,98.90
2023-01-17T14:26:17.801Z,99.60
2023-01-17T14:28:44.864Z,99.90
2023-01-17T14:31:14.004Z,99.90
2023-01-17T14:33:42.135Z,99.90
2023-01-17T14:36:23.471Z,99.90
2023-01-17T14:38:51.165Z,99.90
2023-01-17T14:41:24.641Z,99.90
2023-01-17T14:43:52.526Z,99.90
2023-01-17T14:46:32.302Z,99.90
2023-01-17T14:49:23.998Z,99.90
2023-01-17T14:52:06.210Z,99.90
2023-01-17T14:54:33.553Z,99.90
2023-01-17T14:57:35.685Z,99.90
2023-01-17T15:00:19.770Z,99.90
2023-01-17T15:02:48.996Z,99.90
2023-01-17T15:05:20.852Z,99.50
2023-01-17T15:07:56.163Z,99.90
2023-01-17T15:10:31.587Z,98.80
2023-01-17T15:13:09.009Z,99.90
2023-01-17T15:15:39.638Z,99.90
2023-01-17T15:18:25.970Z,99.90
2023-01-17T15:21:01.837Z,99.90
2023-01-17T15:23:36.854Z,99.90
2023-01-17T15:26:06.133Z,99.90
2023-01-17T15:28:34.997Z,99.90
2023-01-17T15:31:09.770Z,99.90
2023-01-17T15:33:41.288Z,99.90
2023-01-17T15:36:20.810Z,99.90
2023-01-17T15:39:00.321Z,99.90
2023-01-17T15:41:35.840Z,99.90
2023-01-17T15:44:04.602Z,99.90
2023-01-17T15:46:44.620Z,99.90
2023-01-17T15:49:24.935Z,99.90
2023-01-17T15:52:06.421Z,99.90
2023-01-17T15:54:56.473Z,99.90
2023-01-17T15:57:35.838Z,99.90
2023-01-17T16:00:28.736Z,99.90
2023-01-17T16:03:43.960Z,99.90
2023-01-17T16:06:59.820Z,99.90
2023-01-17T16:09:46.119Z,99.90
2023-01-17T16:12:29.564Z,99.90
2023-01-17T16:15:12.910Z,99.90
2023-01-17T16:17:54.332Z,99.90
2023-01-17T16:20:38.060Z,99.90
2023-01-17T16:23:26.568Z,99.90
2023-01-17T16:25:57.065Z,99.90
2023-01-17T16:28:29.134Z,99.90
2023-01-17T16:31:13.563Z,99.90
2023-01-17T16:33:58.153Z,99.90
2023-01-17T16:36:26.348Z,99.90
2023-01-17T16:38:53.966Z,99.90
2023-01-17T16:41:21.571Z,99.90
2023-01-17T16:43:59.128Z,99.90
2023-01-17T16:46:26.699Z,99.90
2023-01-17T16:48:53.881Z,99.90
2023-01-17T16:51:20.988Z,99.90
2023-01-17T16:53:48.348Z,99.90
2023-01-17T16:56:18.046Z,99.90
2023-01-17T16:58:45.203Z,99.90
2023-01-17T17:01:15.945Z,99.90
2023-01-17T17:03:44.351Z,99.90
2023-01-17T17:06:12.904Z,99.90
2023-01-17T17:08:40.097Z,99.90
2023-01-17T17:11:27.523Z,99.90
2023-01-17T17:13:54.636Z,99.90
2023-01-17T17:16:26.614Z,99.90
2023-01-17T17:19:06.156Z,99.90
2023-01-17T17:21:36.780Z,99.90
2023-01-17T17:24:04.584Z,99.90
2023-01-17T17:26:35.375Z,99.90
2023-01-17T17:29:05.020Z,99.90
2023-01-17T17:31:33.269Z,99.90
2023-01-17T17:34:02.707Z,99.90
2023-01-17T17:36:30.878Z,99.90
2023-01-17T17:38:59.133Z,99.90
2023-01-17T17:41:30.818Z,99.90
2023-01-17T17:44:01.346Z,99.90
2023-01-17T17:46:30.299Z,99.90
2023-01-17T17:48:58.894Z,99.90
2023-01-17T17:51:29.352Z,99.90
2023-01-17T17:54:04.153Z,99.90
2023-01-17T17:56:33.795Z,99.90
2023-01-17T17:59:02.875Z,99.90
2023-01-17T18:01:30.649Z,99.90
2023-01-17T18:04:02.905Z,99.90
2023-01-17T18:06:30.823Z,99.90
2023-01-17T18:08:57.993Z,99.90
2023-01-17T18:11:27.940Z,99.90
2023-01-17T18:13:58.842Z,99.90
2023-01-17T18:16:39.463Z,99.90
2023-01-17T18:19:16.048Z,99.90
2023-01-17T18:21:44.332Z,99.90
2023-01-17T18:24:16.477Z,99.90
2023-01-17T18:26:53.457Z,99.90
2023-01-17T18:29:34.509Z,99.90
2023-01-17T18:32:03.098Z,99.90
2023-01-17T18:34:30.280Z,99.90
2023-01-17T18:36:58.313Z,99.90
2023-01-17T18:39:28.833Z,99.90
2023-01-17T18:41:56.320Z,99.90
2023-01-17T18:44:24.276Z,99.90
2023-01-17T18:46:54.825Z,99.90
2023-01-17T18:49:22.253Z,99.90
2023-01-17T18:51:51.289Z,99.90
2023-01-17T18:54:20.388Z,99.90
2023-01-17T18:56:52.333Z,99.90
2023-01-17T18:59:20.283Z,99.90
2023-01-17T19:01:47.490Z,99.90
2023-01-17T19:04:17.307Z,99.90
2023-01-17T19:06:47.909Z,99.90
2023-01-17T19:09:16.975Z,99.90
2023-01-17T19:11:47.358Z,99.90
2023-01-17T19:14:15.707Z,99.90
2023-01-17T19:16:43.124Z,99.90
2023-01-17T19:19:15.683Z,99.90
2023-01-17T19:21:43.091Z,99.90
2023-01-17T19:24:13.173Z,99.90
2023-01-17T19:26:41.691Z,99.90
2023-01-17T19:29:09.254Z,99.90
2023-01-17T19:31:42.397Z,99.90
2023-01-17T19:34:10.427Z,99.90
2023-01-17T19:36:39.322Z,99.90
2023-01-17T19:39:12.182Z,99.90
2023-01-17T19:41:45.336Z,99.90
2023-01-17T19:44:14.376Z,99.90
2023-01-17T19:46:41.950Z,99.90
2023-01-17T19:49:10.474Z,99.90
2023-01-17T19:51:39.427Z,99.90
2023-01-17T19:54:08.472Z,99.90
2023-01-17T19:56:35.801Z,99.90
2023-01-17T19:59:03.114Z,99.90
2023-01-17T20:01:34.035Z,99.90
2023-01-17T20:04:03.793Z,99.90
2023-01-17T20:06:35.864Z,99.90
2023-01-17T20:09:05.156Z,99.90
2023-01-17T20:11:32.585Z,99.90
2023-01-17T20:14:00.418Z,99.90
2023-01-17T20:16:31.633Z,99.90
2023-01-17T20:19:02.895Z,99.90
2023-01-17T20:21:31.943Z,99.90
2023-01-17T20:24:04.550Z,99.90
2023-01-17T20:26:35.312Z,99.90
2023-01-17T20:29:11.738Z,99.90
2023-01-17T20:31:46.385Z,99.90
2023-01-17T20:34:18.632Z,99.90
2023-01-17T20:36:46.273Z,99.90
2023-01-17T20:39:15.077Z,99.90
2023-01-17T20:41:43.748Z,99.90
2023-01-17T20:44:15.382Z,99.90
2023-01-17T20:46:43.182Z,99.90
2023-01-17T20:49:15.735Z,99.90
2023-01-17T20:51:44.519Z,99.90
2023-01-17T20:54:18.829Z,99.90
2023-01-17T20:56:47.871Z,99.90
2023-01-17T20:59:19.102Z,99.90
2023-01-17T21:01:46.934Z,99.90
2023-01-17T21:04:14.772Z,99.90
2023-01-17T21:06:43.515Z,99.90
2023-01-17T21:09:14.931Z,99.90
2023-01-17T21:11:42.034Z,99.90
2023-01-17T21:14:09.411Z,99.90
2023-01-17T21:16:36.890Z,99.90
2023-01-17T21:19:04.923Z,99.90
2023-01-17T21:21:32.368Z,99.90
2023-01-17T21:24:00.598Z,99.90
2023-01-17T21:26:28.777Z,99.90
2023-01-17T21:29:07.367Z,99.90
2023-01-17T21:31:36.567Z,99.90
2023-01-17T21:34:07.606Z,99.90
2023-01-17T21:36:40.573Z,99.90
2023-01-17T21:39:15.638Z,99.90
2023-01-17T21:41:47.878Z,99.90
2023-01-17T21:44:21.508Z,99.90
2023-01-17T21:46:54.238Z,99.90
2023-01-17T21:49:22.496Z,99.90
2023-01-17T21:51:55.163Z,99.90
2023-01-17T21:54:46.867Z,99.90
2023-01-17T21:57:38.325Z,99.90
2023-01-17T22:00:09.638Z,99.90
2023-01-17T22:02:40.117Z,99.90
2023-01-17T22:05:08.852Z,99.90
2023-01-17T22:07:36.260Z,99.90
2023-01-17T22:10:03.633Z,99.90
2023-01-17T22:12:30.590Z,99.90
2023-01-17T22:14:57.638Z,99.90
2023-01-17T22:17:24.591Z,99.90
2023-01-17T22:19:52.988Z,99.90
2023-01-17T22:22:20.041Z,99.90
2023-01-17T22:24:47.257Z,99.90
2023-01-17T22:27:14.204Z,99.90
2023-01-17T22:29:41.766Z,99.90
2023-01-17T22:32:08.806Z,99.90
2023-01-17T22:34:35.687Z,99.90
2023-01-17T22:37:04.581Z,99.90
2023-01-17T22:39:31.606Z,99.90
2023-01-17T22:41:58.687Z,99.90
2023-01-17T22:44:25.843Z,99.90
2023-01-17T22:46:53.470Z,99.90
2023-01-17T22:49:23.390Z,99.90
2023-01-17T22:51:51.264Z,99.90
2023-01-17T22:54:19.269Z,99.90
2023-01-17T22:56:46.347Z,99.90
2023-01-17T22:59:13.732Z,99.90
2023-01-17T23:01:41.308Z,99.90
2023-01-17T23:04:14.382Z,99.90
2023-01-17T23:06:42.083Z,99.90
2023-01-17T23:09:13.766Z,99.90
2023-01-17T23:11:47.205Z,99.90
2023-01-17T23:14:29.984Z,99.90
2023-01-17T23:17:21.573Z,99.90
2023-01-17T23:19:54.528Z,99.90
2023-01-17T23:22:23.776Z,99.90
2023-01-17T23:24:57.209Z,99.90
2023-01-17T23:27:46.504Z,99.90
2023-01-17T23:30:25.091Z,99.90
2023-01-17T23:32:55.786Z,99.90
2023-01-17T23:35:28.327Z,99.90
2023-01-17T23:38:14.888Z,99.90
2023-01-17T23:40:43.401Z,99.90
2023-01-17T23:43:23.160Z,99.90
2023-01-17T23:45:54.634Z,99.90
2023-01-17T23:48:25.326Z,99.90
2023-01-17T23:51:00.277Z,99.90
2023-01-17T23:53:27.662Z,99.90
2023-01-17T23:55:56.965Z,99.90
2023-01-17T23:58:27.692Z,99.90
